createdAt,value
2023-04-07T00:02:12.509Z,5.99
2023-04-07T00:04:39.113Z,5.95
2023-04-07T00:07:05.705Z,5.97
2023-04-07T00:09:32.214Z,5.91
2023-04-07T00:11:58.699Z,5.86
2023-04-07T00:14:25.104Z,5.99
2023-04-07T00:16:51.612Z,5.84
2023-04-07T00:19:18.219Z,5.82
2023-04-07T00:21:44.726Z,5.81
2023-04-07T00:24:12.902Z,5.75
2023-04-07T00:26:40.933Z,5.78
2023-04-07T00:29:07.267Z,5.87
2023-04-07T00:31:34.944Z,5.99
2023-04-07T00:34:01.534Z,6.18
2023-04-07T00:36:28.001Z,6.24
2023-04-07T00:38:54.495Z,5.86
2023-04-07T00:41:21.001Z,6.02
2023-04-07T00:43:47.438Z,6.10
2023-04-07T00:46:13.947Z,5.99
2023-04-07T00:48:40.631Z,5.78
2023-04-07T00:51:07.685Z,5.82
2023-04-07T00:53:34.109Z,5.76
2023-04-07T00:56:00.800Z,5.74
2023-04-07T00:58:27.368Z,5.71
2023-04-07T01:01:15.967Z,5.79
2023-04-07T01:03:51.027Z,5.77
2023-04-07T01:06:20.160Z,5.81
2023-04-07T01:08:54.124Z,5.73
2023-04-07T01:11:28.035Z,5.82
2023-04-07T01:13:54.916Z,5.80
2023-04-07T01:16:35.129Z,5.74
2023-04-07T01:19:39.161Z,5.80
2023-04-07T01:22:13.803Z,5.81
2023-04-07T01:25:18.100Z,5.78
2023-04-07T01:28:22.124Z,5.75
2023-04-07T01:30:50.908Z,5.86
2023-04-07T01:33:18.842Z,5.98
2023-04-07T01:35:46.788Z,5.95
2023-04-07T01:38:14.765Z,5.83
2023-04-07T01:40:41.696Z,5.88
2023-04-07T01:43:08.779Z,5.90
2023-04-07T01:45:37.401Z,5.79
2023-04-07T01:48:07.874Z,5.74
2023-04-07T01:50:34.834Z,5.83
2023-04-07T01:53:03.636Z,5.86
2023-04-07T01:55:30.340Z,5.78
2023-04-07T01:57:56.790Z,5.75
2023-04-07T02:00:23.141Z,5.75
2023-04-07T02:02:55.696Z,5.78
2023-04-07T02:05:22.768Z,5.82
2023-04-07T02:07:55.882Z,5.78
2023-04-07T02:10:25.762Z,5.74
2023-04-07T02:12:52.713Z,5.75
2023-04-07T02:15:19.832Z,5.76
2023-04-07T02:17:49.850Z,5.77
2023-04-07T02:20:17.196Z,5.75
2023-04-07T02:22:47.896Z,5.76
2023-04-07T02:25:29.157Z,5.77
2023-04-07T02:27:57.601Z,5.73
2023-04-07T02:30:25.026Z,5.75
2023-04-07T02:32:52.290Z,5.75
2023-04-07T02:35:19.112Z,5.77
2023-04-07T02:37:47.113Z,5.72
2023-04-07T02:40:14.146Z,5.73
2023-04-07T02:42:40.645Z,5.71
2023-04-07T02:45:08.318Z,5.67
2023-04-07T02:47:36.180Z,5.65
2023-04-07T02:50:03.072Z,5.65
2023-04-07T02:52:29.581Z,5.70
2023-04-07T02:54:56.105Z,5.73
2023-04-07T02:57:22.594Z,5.74
2023-04-07T02:59:49.226Z,5.73
2023-04-07T03:02:15.996Z,5.74
2023-04-07T03:04:42.552Z,5.70
2023-04-07T03:07:09.167Z,5.72
2023-04-07T03:09:35.738Z,5.75
2023-04-07T03:12:02.546Z,5.71
2023-04-07T03:14:29.088Z,5.67
2023-04-07T03:16:55.809Z,5.68
2023-04-07T03:19:22.271Z,5.70
2023-04-07T03:21:49.404Z,5.74
2023-04-07T03:24:15.885Z,5.73
2023-04-07T03:26:42.349Z,5.78
2023-04-07T03:29:08.751Z,5.80
2023-04-07T03:31:35.165Z,5.77
2023-04-07T03:34:01.638Z,5.73
2023-04-07T03:36:28.457Z,5.67
2023-04-07T03:38:54.959Z,5.64
2023-04-07T03:41:21.809Z,5.67
2023-04-07T03:43:48.494Z,5.69
2023-04-07T03:46:15.097Z,5.69
2023-04-07T03:48:41.602Z,5.69
2023-04-07T03:51:08.026Z,5.63
2023-04-07T03:53:34.572Z,5.61
2023-04-07T03:56:01.284Z,5.63
2023-04-07T03:58:27.955Z,5.61
2023-04-07T04:00:54.690Z,5.61
2023-04-07T04:03:21.296Z,5.65
2023-04-07T04:05:48.079Z,5.66
2023-04-07T04:08:14.498Z,5.61
2023-04-07T04:10:41.096Z,5.63
2023-04-07T04:13:07.920Z,5.62
2023-04-07T04:15:34.395Z,5.58
2023-04-07T04:18:00.963Z,5.57
2023-04-07T04:20:28.944Z,5.53
2023-04-07T04:22:55.379Z,5.51
2023-04-07T04:25:21.863Z,5.46
2023-04-07T04:27:48.313Z,5.42
2023-04-07T04:30:14.808Z,5.41
2023-04-07T04:32:41.467Z,5.38
2023-04-07T04:35:08.839Z,5.44
2023-04-07T04:37:35.330Z,5.46
2023-04-07T04:40:02.087Z,5.45
2023-04-07T04:42:28.476Z,5.47
2023-04-07T04:44:55.150Z,5.46
2023-04-07T04:47:21.704Z,5.47
2023-04-07T04:49:48.161Z,5.44
2023-04-07T04:52:14.984Z,5.49
2023-04-07T04:54:41.433Z,5.50
2023-04-07T04:57:08.008Z,5.51
2023-04-07T04:59:34.564Z,5.52
2023-04-07T05:02:01.003Z,5.56
2023-04-07T05:04:27.754Z,5.57
2023-04-07T05:06:54.308Z,5.60
2023-04-07T05:09:20.753Z,5.56
2023-04-07T05:11:47.317Z,5.54
2023-04-07T05:14:13.910Z,5.54
2023-04-07T05:16:40.924Z,5.47
2023-04-07T05:19:07.748Z,5.30
2023-04-07T05:21:34.232Z,5.26
2023-04-07T05:24:00.747Z,5.21
2023-04-07T05:26:27.260Z,5.22
2023-04-07T05:28:55.953Z,5.20
2023-04-07T05:31:23.311Z,5.20
2023-04-07T05:33:50.097Z,5.25
2023-04-07T05:36:16.852Z,5.27
2023-04-07T05:38:43.411Z,5.23
2023-04-07T05:41:10.517Z,5.32
2023-04-07T05:43:37.040Z,5.41
2023-04-07T05:46:03.555Z,5.43
2023-04-07T05:48:30.357Z,5.42
2023-04-07T05:50:57.257Z,5.44
2023-04-07T05:53:24.169Z,5.47
2023-04-07T05:55:50.776Z,5.51
2023-04-07T05:58:17.481Z,5.52
2023-04-07T06:00:44.017Z,5.55
2023-04-07T06:03:10.620Z,5.55
2023-04-07T06:05:37.147Z,5.65
2023-04-07T06:08:03.828Z,5.66
2023-04-07T06:10:30.463Z,5.63
2023-04-07T06:12:57.122Z,5.58
2023-04-07T06:15:24.375Z,5.57
2023-04-07T06:17:51.187Z,5.64
2023-04-07T06:20:17.963Z,5.67
2023-04-07T06:22:44.730Z,5.77
2023-04-07T06:25:11.153Z,5.84
2023-04-07T06:27:37.960Z,5.87
2023-04-07T06:30:04.812Z,5.94
2023-04-07T06:32:31.390Z,6.03
2023-04-07T06:34:58.161Z,6.07
2023-04-07T06:37:24.791Z,6.17
2023-04-07T06:39:51.312Z,6.26
2023-04-07T06:42:17.834Z,6.28
2023-04-07T06:44:44.764Z,6.43
2023-04-07T06:47:11.173Z,6.64
2023-04-07T06:49:37.584Z,6.77
2023-04-07T06:52:05.109Z,6.92
2023-04-07T06:54:31.610Z,7.00
2023-04-07T06:56:58.227Z,7.09
2023-04-07T06:59:24.767Z,7.26
2023-04-07T07:01:51.295Z,7.31
2023-04-07T07:04:18.128Z,6.92
2023-04-07T07:06:44.575Z,6.95
2023-04-07T07:09:11.388Z,6.84
2023-04-07T07:11:38.062Z,7.00
2023-04-07T07:14:04.522Z,7.01
2023-04-07T07:16:30.844Z,7.16
2023-04-07T07:18:57.294Z,7.36
2023-04-07T07:21:23.783Z,7.64
2023-04-07T07:23:50.505Z,7.78
2023-04-07T07:26:17.174Z,8.03
2023-04-07T07:28:43.777Z,8.03
2023-04-07T07:31:11.230Z,8.36
2023-04-07T07:33:37.791Z,8.62
2023-04-07T07:36:04.714Z,9.07
2023-04-07T07:38:31.210Z,9.32
2023-04-07T07:40:57.828Z,9.65
2023-04-07T07:43:24.321Z,9.60
2023-04-07T07:45:50.831Z,9.75
2023-04-07T07:48:17.262Z,10.47
2023-04-07T07:50:43.864Z,10.37
2023-04-07T07:53:11.695Z,10.32
2023-04-07T07:55:38.366Z,10.26
2023-04-07T07:58:04.806Z,10.75
2023-04-07T08:00:31.222Z,10.58
2023-04-07T08:02:57.803Z,9.89
2023-04-07T08:05:24.514Z,9.76
2023-04-07T08:07:54.202Z,10.09
2023-04-07T08:10:21.530Z,10.37
2023-04-07T08:12:48.030Z,10.20
2023-04-07T08:15:14.533Z,10.46
2023-04-07T08:17:41.298Z,10.81
2023-04-07T08:20:08.673Z,10.63
2023-04-07T08:22:35.327Z,10.79
2023-04-07T08:25:02.303Z,10.91
2023-04-07T08:27:29.030Z,11.14
2023-04-07T08:30:00.661Z,11.00
2023-04-07T08:32:37.963Z,11.38
2023-04-07T08:35:05.173Z,11.18
2023-04-07T08:37:32.537Z,11.22
2023-04-07T08:40:11.134Z,11.41
2023-04-07T08:42:41.753Z,11.75
2023-04-07T08:45:09.173Z,11.91
2023-04-07T08:47:41.346Z,11.84
2023-04-07T08:50:10.669Z,12.24
2023-04-07T08:52:56.664Z,12.18
2023-04-07T08:55:24.213Z,11.97
2023-04-07T08:57:51.685Z,12.65
2023-04-07T09:00:18.780Z,12.34
2023-04-07T09:02:45.521Z,11.56
2023-04-07T09:05:13.087Z,12.10
2023-04-07T09:07:39.977Z,11.89
2023-04-07T09:10:10.531Z,11.81
2023-04-07T09:12:37.746Z,12.08
2023-04-07T09:15:06.346Z,12.21
2023-04-07T09:17:34.703Z,11.68
2023-04-07T09:20:01.961Z,11.38
2023-04-07T09:22:42.985Z,11.31
2023-04-07T09:25:17.925Z,11.56
2023-04-07T09:27:57.629Z,11.65
2023-04-07T09:30:24.606Z,12.06
2023-04-07T09:32:51.366Z,12.09
2023-04-07T09:35:17.931Z,12.13
2023-04-07T09:37:44.829Z,12.09
2023-04-07T09:40:12.649Z,11.76
2023-04-07T09:42:47.132Z,12.24
2023-04-07T09:45:33.994Z,12.45
2023-04-07T09:48:21.647Z,12.19
2023-04-07T09:50:49.834Z,12.15
2023-04-07T09:53:16.800Z,12.17
2023-04-07T09:55:43.619Z,11.73
2023-04-07T09:58:16.310Z,11.80
2023-04-07T10:00:47.150Z,11.48
2023-04-07T10:03:15.396Z,11.66
2023-04-07T10:05:42.718Z,11.64
2023-04-07T10:08:09.935Z,11.91
2023-04-07T10:10:36.727Z,11.87
2023-04-07T10:13:05.503Z,12.04
2023-04-07T10:15:32.420Z,11.96
2023-04-07T10:18:00.787Z,11.52
2023-04-07T10:20:29.168Z,11.60
2023-04-07T10:23:02.413Z,11.48
2023-04-07T10:25:29.570Z,11.44
2023-04-07T10:28:08.059Z,11.81
2023-04-07T10:30:35.965Z,11.76
2023-04-07T10:33:02.643Z,11.80
2023-04-07T10:35:49.269Z,12.06
2023-04-07T10:38:15.746Z,12.22
2023-04-07T10:40:43.614Z,11.94
2023-04-07T10:43:12.385Z,12.10
2023-04-07T10:45:47.943Z,12.31
2023-04-07T10:48:19.260Z,12.33
2023-04-07T10:51:06.700Z,12.49
2023-04-07T10:53:33.518Z,13.39
2023-04-07T10:56:00.663Z,13.13
2023-04-07T10:58:33.797Z,13.19
2023-04-07T11:01:00.160Z,13.13
2023-04-07T11:03:29.137Z,13.42
2023-04-07T11:06:07.088Z,12.87
2023-04-07T11:08:35.870Z,12.71
2023-04-07T11:11:03.050Z,13.04
2023-04-07T11:13:40.121Z,12.69
2023-04-07T11:16:07.151Z,13.03
2023-04-07T11:18:33.918Z,12.68
2023-04-07T11:21:00.756Z,12.64
2023-04-07T11:23:27.432Z,12.78
2023-04-07T11:26:01.879Z,12.79
2023-04-07T11:28:29.376Z,12.34
2023-04-07T11:30:57.066Z,12.43
2023-04-07T11:33:27.506Z,12.32
2023-04-07T11:35:57.078Z,12.34
2023-04-07T11:38:26.720Z,12.53
2023-04-07T11:40:57.591Z,12.99
2023-04-07T11:43:28.079Z,13.50
2023-04-07T11:46:11.615Z,14.04
2023-04-07T11:48:40.794Z,13.35
2023-04-07T11:51:18.134Z,13.61
2023-04-07T11:53:47.858Z,14.14
2023-04-07T11:56:19.439Z,14.54
2023-04-07T11:58:56.051Z,13.68
2023-04-07T12:01:23.209Z,13.56
2023-04-07T12:03:59.826Z,13.07
2023-04-07T12:06:31.509Z,13.45
2023-04-07T12:08:58.040Z,13.55
2023-04-07T12:11:24.600Z,13.85
2023-04-07T12:13:51.097Z,13.97
2023-04-07T12:16:17.620Z,13.46
2023-04-07T12:18:44.392Z,13.56
2023-04-07T12:21:11.005Z,13.86
2023-04-07T12:23:37.900Z,13.44
2023-04-07T12:26:04.515Z,12.81
2023-04-07T12:28:31.045Z,12.83
2023-04-07T12:30:59.224Z,13.18
2023-04-07T12:33:25.746Z,12.68
2023-04-07T12:35:52.621Z,12.98
2023-04-07T12:38:19.365Z,12.76
2023-04-07T12:40:45.913Z,12.36
2023-04-07T12:43:12.514Z,12.45
2023-04-07T12:45:39.937Z,12.29
2023-04-07T12:48:06.464Z,12.21
2023-04-07T12:50:33.318Z,12.19
2023-04-07T12:53:04.188Z,12.18
2023-04-07T12:55:33.352Z,12.05
2023-04-07T12:58:00.410Z,11.87
2023-04-07T13:00:27.108Z,11.52
2023-04-07T13:02:54.003Z,11.23
2023-04-07T13:05:20.634Z,11.14
2023-04-07T13:07:48.300Z,10.99
2023-04-07T13:10:16.203Z,10.81
2023-04-07T13:12:42.762Z,10.89
2023-04-07T13:15:09.239Z,10.60
2023-04-07T13:17:36.269Z,10.67
2023-04-07T13:20:06.393Z,10.62
2023-04-07T13:22:34.740Z,10.60
2023-04-07T13:25:02.374Z,10.75
2023-04-07T13:27:29.184Z,10.82
2023-04-07T13:29:55.603Z,10.80
2023-04-07T13:32:22.128Z,10.59
2023-04-07T13:34:48.620Z,10.57
2023-04-07T13:37:15.298Z,10.54
2023-04-07T13:39:41.723Z,10.52
2023-04-07T13:42:08.442Z,10.22
2023-04-07T13:44:35.282Z,10.09
2023-04-07T13:47:01.773Z,10.09
2023-04-07T13:49:28.523Z,10.23
2023-04-07T13:51:55.489Z,10.21
2023-04-07T13:54:22.246Z,10.35
2023-04-07T13:56:49.048Z,10.41
2023-04-07T13:59:16.236Z,10.55
2023-04-07T14:01:42.778Z,10.43
2023-04-07T14:04:09.371Z,10.43
2023-04-07T14:06:36.243Z,10.52
2023-04-07T14:09:02.851Z,10.47
2023-04-07T14:11:29.543Z,10.33
2023-04-07T14:13:56.232Z,10.25
2023-04-07T14:16:23.158Z,10.20
2023-04-07T14:18:49.819Z,10.34
2023-04-07T14:21:16.488Z,10.45
2023-04-07T14:23:43.852Z,10.59
2023-04-07T14:26:11.648Z,10.68
2023-04-07T14:28:38.266Z,10.50
2023-04-07T14:31:05.017Z,10.62
2023-04-07T14:33:31.545Z,10.77
2023-04-07T14:35:58.173Z,10.85
2023-04-07T14:38:24.973Z,10.96
2023-04-07T14:40:52.090Z,11.13
2023-04-07T14:43:18.990Z,11.10
2023-04-07T14:45:48.023Z,11.24
2023-04-07T14:48:15.247Z,11.28
2023-04-07T14:50:41.836Z,11.45
2023-04-07T14:53:08.537Z,11.62
2023-04-07T14:55:35.469Z,11.71
2023-04-07T14:58:01.886Z,11.64
2023-04-07T15:00:28.530Z,12.09
2023-04-07T15:02:56.142Z,12.27
2023-04-07T15:05:22.985Z,12.23
2023-04-07T15:07:50.506Z,12.29
2023-04-07T15:10:16.973Z,12.53
2023-04-07T15:12:43.889Z,12.73
2023-04-07T15:15:10.906Z,12.90
2023-04-07T15:17:43.901Z,12.83
2023-04-07T15:20:11.745Z,13.30
2023-04-07T15:22:38.366Z,13.15
2023-04-07T15:25:05.287Z,13.11
2023-04-07T15:27:31.815Z,13.18
2023-04-07T15:29:58.256Z,13.16
2023-04-07T15:32:24.884Z,13.10
2023-04-07T15:34:51.439Z,13.13
2023-04-07T15:37:18.324Z,13.03
2023-04-07T15:39:44.845Z,12.96
2023-04-07T15:42:11.179Z,12.83
2023-04-07T15:44:37.637Z,12.88
2023-04-07T15:47:04.163Z,13.02
2023-04-07T15:49:30.636Z,13.17
2023-04-07T15:51:57.835Z,13.16
2023-04-07T15:54:25.825Z,13.23
2023-04-07T15:56:52.230Z,12.97
2023-04-07T15:59:18.919Z,12.97
2023-04-07T16:01:45.518Z,13.16
2023-04-07T16:04:12.027Z,12.67
2023-04-07T16:06:38.680Z,12.71
2023-04-07T16:09:05.430Z,12.31
2023-04-07T16:11:31.921Z,12.46
2023-04-07T16:13:58.785Z,12.25
2023-04-07T16:16:25.307Z,12.26
2023-04-07T16:18:51.810Z,12.10
2023-04-07T16:21:18.540Z,11.85
2023-04-07T16:23:45.114Z,11.82
2023-04-07T16:26:11.756Z,11.68
2023-04-07T16:28:38.271Z,11.62
2023-04-07T16:31:05.504Z,11.74
2023-04-07T16:33:32.258Z,11.71
2023-04-07T16:35:58.843Z,11.57
2023-04-07T16:38:25.520Z,11.59
2023-04-07T16:41:03.411Z,11.53
2023-04-07T16:43:31.143Z,11.46
2023-04-07T16:45:57.746Z,11.43
2023-04-07T16:48:24.483Z,11.50
2023-04-07T16:50:51.253Z,11.45
2023-04-07T16:53:21.056Z,11.42
2023-04-07T16:55:48.190Z,11.46
2023-04-07T16:58:14.646Z,11.41
2023-04-07T17:00:41.526Z,11.44
2023-04-07T17:03:08.469Z,11.47
2023-04-07T17:05:35.029Z,11.38
2023-04-07T17:08:01.752Z,11.28
2023-04-07T17:10:28.243Z,11.21
2023-04-07T17:12:55.134Z,11.12
2023-04-07T17:15:22.813Z,11.03
2023-04-07T17:17:50.681Z,10.99
2023-04-07T17:20:17.104Z,10.93
2023-04-07T17:22:44.688Z,10.91
2023-04-07T17:25:11.634Z,10.82
2023-04-07T17:27:38.094Z,10.83
2023-04-07T17:30:05.445Z,10.73
2023-04-07T17:32:32.068Z,10.76
2023-04-07T17:34:58.703Z,10.71
2023-04-07T17:37:25.533Z,10.68
2023-04-07T17:39:51.951Z,10.66
2023-04-07T17:42:18.789Z,10.64
2023-04-07T17:44:45.394Z,10.60
2023-04-07T17:47:11.974Z,10.60
2023-04-07T17:49:38.450Z,10.54
2023-04-07T17:52:04.999Z,10.52
2023-04-07T17:54:31.718Z,10.48
2023-04-07T17:56:58.464Z,10.47
2023-04-07T17:59:24.955Z,10.46
2023-04-07T18:01:51.959Z,10.43
2023-04-07T18:04:18.570Z,10.40
2023-04-07T18:06:45.168Z,10.35
2023-04-07T18:09:11.892Z,10.33
2023-04-07T18:11:38.699Z,10.30
2023-04-07T18:14:05.416Z,10.27
2023-04-07T18:16:32.036Z,10.27
2023-04-07T18:18:58.697Z,10.25
2023-04-07T18:21:25.545Z,10.20
2023-04-07T18:23:52.167Z,10.18
2023-04-07T18:26:19.255Z,10.17
2023-04-07T18:28:45.680Z,10.14
2023-04-07T18:31:12.253Z,10.08
2023-04-07T18:33:38.812Z,10.02
2023-04-07T18:36:08.008Z,10.03
2023-04-07T18:38:35.450Z,9.99
2023-04-07T18:41:02.474Z,9.91
2023-04-07T18:43:29.068Z,9.88
2023-04-07T18:45:55.764Z,9.67
2023-04-07T18:48:22.434Z,9.47
2023-04-07T18:50:50.023Z,8.92
2023-04-07T18:53:16.776Z,8.20
2023-04-07T18:55:43.338Z,8.00
2023-04-07T18:58:09.808Z,7.90
2023-04-07T19:00:37.236Z,7.75
2023-04-07T19:03:03.960Z,7.66
2023-04-07T19:05:30.439Z,7.54
2023-04-07T19:07:56.848Z,7.50
2023-04-07T19:10:23.554Z,7.47
2023-04-07T19:12:50.254Z,7.43
2023-04-07T19:15:16.705Z,7.47
2023-04-07T19:17:45.259Z,7.43
2023-04-07T19:20:11.765Z,7.38
2023-04-07T19:22:39.871Z,7.27
2023-04-07T19:25:07.148Z,7.30
2023-04-07T19:27:33.652Z,7.27
2023-04-07T19:30:00.336Z,7.24
2023-04-07T19:32:27.027Z,7.24
2023-04-07T19:34:54.685Z,7.18
2023-04-07T19:37:21.393Z,7.15
2023-04-07T19:40:01.572Z,7.16
2023-04-07T19:42:29.523Z,7.19
2023-04-07T19:44:57.840Z,7.20
2023-04-07T19:47:24.938Z,7.18
2023-04-07T19:49:51.379Z,7.20
2023-04-07T19:52:18.060Z,7.18
2023-04-07T19:54:44.588Z,7.21
2023-04-07T19:57:11.124Z,7.18
2023-04-07T19:59:37.500Z,7.20
2023-04-07T20:02:04.011Z,7.18
2023-04-07T20:04:30.917Z,7.22
2023-04-07T20:06:57.276Z,7.24
2023-04-07T20:09:24.042Z,7.22
2023-04-07T20:11:50.962Z,7.20
2023-04-07T20:14:17.316Z,7.16
2023-04-07T20:16:43.883Z,7.17
2023-04-07T20:19:10.694Z,7.15
2023-04-07T20:21:37.148Z,7.12
2023-04-07T20:24:04.087Z,7.14
2023-04-07T20:26:30.660Z,7.14
2023-04-07T20:28:57.106Z,7.17
2023-04-07T20:31:25.011Z,7.15
2023-04-07T20:33:51.513Z,7.23
2023-04-07T20:36:18.112Z,7.24
2023-04-07T20:38:44.929Z,7.29
2023-04-07T20:41:16.018Z,7.36
2023-04-07T20:43:42.576Z,7.34
2023-04-07T20:46:09.290Z,7.25
2023-04-07T20:48:35.807Z,7.27
2023-04-07T20:51:02.316Z,7.22
2023-04-07T20:53:29.113Z,7.22
2023-04-07T20:55:55.593Z,7.24
2023-04-07T20:58:22.121Z,7.21
2023-04-07T21:00:55.476Z,7.09
2023-04-07T21:03:23.133Z,7.14
2023-04-07T21:05:49.772Z,7.16
2023-04-07T21:08:16.380Z,7.15
2023-04-07T21:10:42.889Z,7.11
2023-04-07T21:13:09.378Z,7.13
2023-04-07T21:15:35.826Z,7.11
2023-04-07T21:18:02.496Z,7.12
2023-04-07T21:20:29.084Z,7.14
2023-04-07T21:22:55.762Z,7.14
2023-04-07T21:25:22.289Z,7.16
2023-04-07T21:27:48.777Z,7.21
2023-04-07T21:30:15.498Z,7.22
2023-04-07T21:32:42.140Z,7.23
2023-04-07T21:35:09.408Z,7.14
2023-04-07T21:37:36.026Z,7.14
2023-04-07T21:40:02.758Z,7.09
2023-04-07T21:42:29.301Z,7.06
2023-04-07T21:44:55.881Z,7.03
2023-04-07T21:47:22.829Z,6.98
2023-04-07T21:49:49.709Z,6.97
2023-04-07T21:52:16.881Z,6.91
2023-04-07T21:54:44.021Z,6.88
2023-04-07T21:57:11.119Z,6.82
2023-04-07T21:59:38.257Z,6.81
2023-04-07T22:02:04.964Z,6.85
2023-04-07T22:04:31.934Z,6.82
2023-04-07T22:06:58.460Z,6.80
2023-04-07T22:09:24.984Z,6.84
2023-04-07T22:11:52.752Z,6.83
2023-04-07T22:14:20.096Z,6.79
2023-04-07T22:16:46.818Z,6.83
2023-04-07T22:19:13.288Z,6.81
2023-04-07T22:21:39.725Z,6.78
2023-04-07T22:24:06.131Z,6.80
2023-04-07T22:26:32.794Z,6.80
2023-04-07T22:28:59.236Z,6.79
2023-04-07T22:31:26.472Z,6.78
2023-04-07T22:33:53.388Z,6.77
2023-04-07T22:36:20.700Z,6.76
2023-04-07T22:38:47.720Z,6.72
2023-04-07T22:41:14.374Z,6.76
2023-04-07T22:43:40.890Z,6.72
2023-04-07T22:46:07.393Z,6.74
2023-04-07T22:48:33.818Z,6.73
2023-04-07T22:51:00.258Z,6.76
2023-04-07T22:53:26.934Z,6.72
2023-04-07T22:55:53.442Z,6.68
2023-04-07T22:58:19.878Z,6.71
2023-04-07T23:00:46.373Z,6.78
2023-04-07T23:03:12.924Z,6.76
2023-04-07T23:05:39.328Z,6.83
2023-04-07T23:08:05.742Z,6.87
2023-04-07T23:10:32.237Z,6.87
2023-04-07T23:12:58.649Z,6.85
2023-04-07T23:15:25.179Z,6.81
2023-04-07T23:17:51.625Z,6.82
2023-04-07T23:20:18.279Z,6.82
2023-04-07T23:22:45.058Z,6.88
2023-04-07T23:25:11.898Z,6.86
2023-04-07T23:27:38.496Z,6.89
2023-04-07T23:30:05.418Z,6.92
2023-04-07T23:32:32.166Z,6.95
2023-04-07T23:34:58.656Z,6.93
2023-04-07T23:37:25.420Z,6.96
2023-04-07T23:39:51.930Z,6.92
2023-04-07T23:42:18.551Z,6.93
2023-04-07T23:44:44.895Z,7.00
2023-04-07T23:47:11.558Z,6.98
2023-04-07T23:49:38.351Z,6.99
2023-04-07T23:52:04.882Z,6.97
2023-04-07T23:54:32.316Z,6.95
2023-04-07T23:56:58.937Z,6.93
2023-04-07T23:59:25.417Z,6.93
